createdAt,value
2023-06-23T07:16:31.856Z,97.00
2023-06-23T07:21:27.973Z,93.60
2023-06-23T07:23:54.945Z,92.20
2023-06-23T07:26:22.022Z,91.00
2023-06-23T07:28:50.149Z,90.00
2023-06-23T07:31:17.236Z,87.40
2023-06-23T07:33:44.327Z,85.50
2023-06-23T07:36:11.335Z,82.90
2023-06-23T07:38:38.335Z,81.30
2023-06-23T07:41:06.102Z,80.50
2023-06-23T07:43:33.061Z,79.70
2023-06-23T07:46:00.220Z,79.70
2023-06-23T07:48:27.397Z,77.20
2023-06-23T07:53:22.253Z,79.20
2023-06-23T07:55:49.269Z,82.90
2023-06-23T07:58:16.449Z,84.90
2023-06-23T08:00:43.391Z,83.80
2023-06-23T08:03:10.633Z,83.70
2023-06-23T08:05:42.819Z,83.30
2023-06-23T08:08:09.863Z,81.30
2023-06-23T08:10:37.060Z,78.90
2023-06-23T08:13:04.049Z,79.10
2023-06-23T08:15:31.511Z,80.70
2023-06-23T08:17:58.745Z,79.30
2023-06-23T08:20:25.843Z,79.40
2023-06-23T08:22:53.032Z,80.00
2023-06-23T08:25:20.029Z,78.40
2023-06-23T08:27:47.370Z,75.90
2023-06-23T08:30:16.308Z,74.20
2023-06-23T08:32:43.388Z,71.80
2023-06-23T08:35:12.074Z,71.00
2023-06-23T08:37:40.333Z,71.40
2023-06-23T08:40:07.659Z,70.30
2023-06-23T08:42:34.603Z,68.30
2023-06-23T08:45:04.830Z,68.50
2023-06-23T08:47:32.352Z,67.20
2023-06-23T08:49:59.738Z,66.90
2023-06-23T08:52:27.106Z,66.40
2023-06-23T08:54:54.314Z,66.10
2023-06-23T08:57:21.889Z,66.20
2023-06-23T08:59:49.063Z,65.80
2023-06-23T09:02:17.213Z,62.80
2023-06-23T09:04:44.505Z,61.80
2023-06-23T09:07:11.729Z,60.60
2023-06-23T09:09:38.932Z,60.60
2023-06-23T09:12:06.456Z,60.00
2023-06-23T09:14:34.847Z,59.10
2023-06-23T09:17:02.363Z,58.20
2023-06-23T09:19:32.255Z,59.00
2023-06-23T09:22:00.426Z,58.50
2023-06-23T09:24:41.018Z,57.70
2023-06-23T09:27:08.137Z,58.60
2023-06-23T09:29:36.783Z,56.60
2023-06-23T09:32:04.719Z,55.40
2023-06-23T09:34:33.027Z,55.40
2023-06-23T09:37:07.413Z,54.70
2023-06-23T09:39:35.653Z,54.10
2023-06-23T09:42:05.184Z,54.20
2023-06-23T09:44:36.160Z,54.50
2023-06-23T09:47:04.340Z,54.70
2023-06-23T09:49:38.704Z,55.10
2023-06-23T09:52:06.089Z,55.20
2023-06-23T09:54:33.822Z,54.70
2023-06-23T09:57:08.454Z,54.70
2023-06-23T09:59:38.778Z,54.90
2023-06-23T10:02:06.878Z,54.50
2023-06-23T10:04:34.042Z,53.30
2023-06-23T10:07:18.243Z,53.30
2023-06-23T10:10:04.779Z,53.30
2023-06-23T15:11:02.631Z,59.10
2023-06-23T15:13:29.701Z,59.80
2023-06-23T15:15:56.657Z,60.20
2023-06-23T15:18:23.640Z,61.20
2023-06-23T15:20:50.653Z,61.80
2023-06-23T15:23:17.851Z,62.10
2023-06-23T15:25:47.132Z,62.60
2023-06-23T15:28:31.736Z,62.70
2023-06-23T15:30:59.592Z,63.60
2023-06-23T15:33:27.087Z,63.70
2023-06-23T15:35:54.194Z,64.00
2023-06-23T15:38:21.228Z,64.20
2023-06-23T15:40:48.366Z,63.90
2023-06-23T15:43:17.975Z,63.50
2023-06-23T15:45:45.586Z,63.70
2023-06-23T15:48:12.804Z,64.10
2023-06-23T15:50:40.278Z,64.20
2023-06-23T15:53:07.475Z,64.70
2023-06-23T15:55:34.861Z,64.70
2023-06-23T15:58:02.173Z,65.00
2023-06-23T16:00:29.329Z,64.60
2023-06-23T16:02:56.559Z,64.30
2023-06-23T16:05:25.155Z,64.30
2023-06-23T16:07:52.509Z,64.50
2023-06-23T16:10:19.990Z,64.20
2023-06-23T16:12:46.960Z,64.40
2023-06-23T16:15:15.054Z,64.50
2023-06-23T16:17:43.052Z,64.60
2023-06-23T16:20:10.642Z,64.40
2023-06-23T16:22:37.834Z,64.40
2023-06-23T16:25:05.454Z,64.60
2023-06-23T16:27:33.070Z,64.30
2023-06-23T16:30:00.386Z,64.60
2023-06-23T16:32:27.505Z,64.60
2023-06-23T16:34:56.223Z,64.90
2023-06-23T16:37:23.255Z,64.40
2023-06-23T16:39:50.229Z,64.90
2023-06-23T16:42:17.680Z,65.30
2023-06-23T16:44:45.122Z,65.60
2023-06-23T16:47:12.235Z,65.50
2023-06-23T16:49:39.301Z,66.60
2023-06-23T16:52:06.707Z,66.20
2023-06-23T16:54:36.008Z,66.60
2023-06-23T16:57:03.267Z,66.70
2023-06-23T16:59:30.338Z,66.90
2023-06-23T17:01:57.734Z,67.30
2023-06-23T17:04:25.279Z,67.50
2023-06-23T17:06:52.378Z,67.90
2023-06-23T17:09:19.527Z,68.10
2023-06-23T17:11:46.635Z,68.60
2023-06-23T17:14:15.048Z,69.30
2023-06-23T18:05:53.865Z,79.10
2023-06-23T18:08:21.014Z,79.80
2023-06-23T18:10:47.970Z,81.00
2023-06-23T18:13:15.028Z,82.50
2023-06-23T18:15:42.175Z,83.00
2023-06-23T18:18:09.813Z,84.50
2023-06-23T18:20:37.015Z,85.20
2023-06-23T18:23:04.072Z,86.00
2023-06-23T18:25:31.188Z,84.40
2023-06-23T18:27:58.241Z,84.40
2023-06-23T18:30:25.331Z,84.90
2023-06-23T18:32:52.589Z,85.20
2023-06-23T18:35:20.476Z,85.60
2023-06-23T18:37:47.503Z,85.60
2023-06-23T18:40:14.903Z,85.80
2023-06-23T18:42:42.088Z,86.60
2023-06-23T18:45:11.005Z,87.20
2023-06-23T18:47:37.968Z,87.50
2023-06-23T18:50:05.374Z,88.00
2023-06-23T18:52:32.337Z,88.10
2023-06-23T18:54:59.389Z,87.80
2023-06-23T18:57:26.591Z,88.40
2023-06-23T18:59:54.050Z,88.50
2023-06-23T19:02:21.951Z,89.40
2023-06-23T19:04:49.104Z,90.20
2023-06-23T19:07:16.152Z,90.50
2023-06-23T19:09:43.236Z,90.80
2023-06-23T19:12:10.345Z,91.00
2023-06-23T19:14:38.621Z,91.20
2023-06-23T19:17:07.651Z,91.40
2023-06-23T19:19:35.113Z,91.60
2023-06-23T19:22:02.132Z,91.70
2023-06-23T19:24:29.218Z,91.80
2023-06-23T19:26:56.198Z,92.10
2023-06-23T19:29:23.149Z,92.40
2023-06-23T19:31:50.403Z,92.60
2023-06-23T19:34:17.395Z,92.80
2023-06-23T19:36:45.051Z,92.80
2023-06-23T19:39:15.040Z,92.70
2023-06-23T19:41:42.846Z,92.50
2023-06-23T19:44:09.860Z,92.70
2023-06-23T19:46:36.919Z,92.80
2023-06-23T19:49:04.068Z,92.90
2023-06-23T19:51:31.119Z,92.90
2023-06-23T19:53:59.439Z,93.00
2023-06-23T19:56:26.373Z,93.00
2023-06-23T19:58:53.384Z,93.10
2023-06-23T20:01:20.441Z,93.50
2023-06-23T20:03:47.601Z,93.80
2023-06-23T20:06:14.849Z,94.10
2023-06-23T20:08:42.947Z,94.30
2023-06-23T20:11:11.521Z,94.50
2023-06-23T20:13:38.546Z,94.80
2023-06-23T20:16:05.689Z,95.30
2023-06-23T20:18:32.861Z,95.90
2023-06-23T20:21:00.024Z,96.40
2023-06-23T20:23:27.910Z,97.10
2023-06-23T20:25:54.964Z,97.50
2023-06-23T20:28:22.132Z,98.10
2023-06-23T20:30:49.131Z,98.60
2023-06-23T20:33:16.230Z,98.90
2023-06-23T20:35:44.098Z,99.20
2023-06-23T20:38:11.184Z,99.50
2023-06-23T20:40:38.244Z,99.60
2023-06-23T20:43:05.207Z,99.80
2023-06-23T20:45:33.292Z,99.90
2023-06-23T20:48:02.513Z,99.90
2023-06-23T20:50:29.598Z,99.90
2023-06-23T20:52:56.602Z,99.90
2023-06-23T20:55:23.771Z,99.90
2023-06-23T20:57:50.859Z,99.90
2023-06-23T21:00:18.076Z,99.90
2023-06-23T21:02:45.201Z,99.90
2023-06-23T21:05:12.272Z,99.90
2023-06-23T21:07:39.254Z,99.90
2023-06-23T21:12:53.652Z,99.90
2023-06-23T21:15:20.661Z,99.90
2023-06-23T21:17:47.830Z,99.90
2023-06-23T21:20:14.965Z,99.90
2023-06-23T21:22:41.927Z,99.90
2023-06-23T21:25:09.129Z,99.90
2023-06-23T21:27:36.286Z,99.90
2023-06-23T21:30:04.636Z,99.90
2023-06-23T21:32:31.950Z,99.90
2023-06-23T21:34:58.995Z,99.90
2023-06-23T21:37:26.080Z,99.90
2023-06-23T21:39:53.028Z,99.90
2023-06-23T21:42:21.678Z,99.90
2023-06-23T21:44:50.335Z,99.90
2023-06-23T21:47:17.395Z,99.90
2023-06-23T21:49:44.654Z,99.90
2023-06-23T21:52:11.745Z,99.90
2023-06-23T21:54:41.202Z,99.90
2023-06-23T21:57:08.922Z,99.90
2023-06-23T21:59:35.915Z,99.90
2023-06-23T22:02:03.049Z,99.90
2023-06-23T22:06:57.592Z,99.90
2023-06-23T22:09:24.632Z,99.90
2023-06-23T22:11:51.927Z,99.90
2023-06-23T22:14:19.499Z,99.90
2023-06-23T22:16:46.591Z,99.90
2023-06-23T22:19:13.641Z,99.90
2023-06-23T22:21:41.038Z,99.90
2023-06-23T22:24:08.288Z,99.90
2023-06-23T22:26:35.340Z,99.90
2023-06-23T22:29:02.401Z,99.90
2023-06-23T22:31:29.508Z,99.90
2023-06-23T22:33:56.954Z,99.90
2023-06-23T22:36:28.993Z,99.90
2023-06-23T22:39:01.808Z,99.90
2023-06-23T22:41:28.975Z,99.90
2023-06-23T22:43:56.054Z,99.90
2023-06-23T22:46:23.236Z,99.90
2023-06-23T22:48:50.288Z,99.90
2023-06-23T22:51:17.406Z,99.90
2023-06-23T22:53:44.342Z,99.90
2023-06-23T22:56:12.915Z,99.90
2023-06-23T22:58:39.976Z,99.90
2023-06-23T23:01:07.153Z,99.90
2023-06-23T23:03:34.462Z,99.90
2023-06-23T23:06:01.721Z,99.90
2023-06-23T23:08:28.861Z,99.90
2023-06-23T23:10:55.914Z,99.90
2023-06-23T23:13:23.073Z,99.90
2023-06-23T23:15:50.085Z,99.90
2023-06-23T23:18:17.385Z,99.90
2023-06-23T23:20:44.566Z,99.90
2023-06-23T23:23:11.736Z,99.90
2023-06-23T23:25:41.286Z,99.90
2023-06-23T23:28:11.898Z,99.90
2023-06-23T23:30:38.993Z,99.90
2023-06-23T23:33:06.294Z,99.90
2023-06-23T23:35:40.293Z,99.90
2023-06-23T23:38:07.880Z,99.90
2023-06-23T23:40:35.260Z,99.90
2023-06-23T23:43:02.479Z,99.90
2023-06-23T23:45:30.260Z,99.90
2023-06-23T23:47:57.558Z,99.90
2023-06-23T23:50:24.672Z,99.90
2023-06-23T23:52:52.761Z,99.90
2023-06-23T23:55:19.988Z,99.90
2023-06-23T23:57:46.967Z,99.90
